sensor_id;sensor_type;location;lat;lon;timestamp;temperature;humidity
52543;DHT22;38449;52.696;6.186;2023-08-30T00:00:19;14.20;99.90
52543;DHT22;38449;52.696;6.186;2023-08-30T00:02:47;14.10;99.90
52543;DHT22;38449;52.696;6.186;2023-08-30T00:05:14;14.10;99.90
52543;DHT22;38449;52.696;6.186;2023-08-30T00:07:41;14.10;99.90
52543;DHT22;38449;52.696;6.186;2023-08-30T00:10:07;14.10;99.90
52543;DHT22;38449;52.696;6.186;2023-08-30T00:12:36;14.10;99.90
52543;DHT22;38449;52.696;6.186;2023-08-30T00:15:02;14.00;99.90
52543;DHT22;38449;52.696;6.186;2023-08-30T00:17:29;14.00;99.90
52543;DHT22;38449;52.696;6.186;2023-08-30T00:19:55;14.00;99.90
52543;DHT22;38449;52.696;6.186;2023-08-30T00:22:22;13.90;99.90
52543;DHT22;38449;52.696;6.186;2023-08-30T00:24:49;13.90;99.90
52543;DHT22;38449;52.696;6.186;2023-08-30T00:27:17;13.90;99.90
52543;DHT22;38449;52.696;6.186;2023-08-30T00:29:43;13.90;99.90
52543;DHT22;38449;52.696;6.186;2023-08-30T00:32:10;13.80;99.90
52543;DHT22;38449;52.696;6.186;2023-08-30T00:34:36;13.70;99.90
52543;DHT22;38449;52.696;6.186;2023-08-30T00:37:02;13.70;99.90
52543;DHT22;38449;52.696;6.186;2023-08-30T00:39:29;13.70;99.90
52543;DHT22;38449;52.696;6.186;2023-08-30T00:41:55;13.60;99.90
52543;DHT22;38449;52.696;6.186;2023-08-30T00:44:22;13.60;99.90
52543;DHT22;38449;52.696;6.186;2023-08-30T00:46:48;13.60;99.90
52543;DHT22;38449;52.696;6.186;2023-08-30T00:49:14;13.60;99.90
52543;DHT22;38449;52.696;6.186;2023-08-30T00:51:41;13.50;99.90
52543;DHT22;38449;52.696;6.186;2023-08-30T00:54:07;13.50;99.90
52543;DHT22;38449;52.696;6.186;2023-08-30T00:56:34;13.50;99.90
52543;DHT22;38449;52.696;6.186;2023-08-30T00:59:00;13.50;99.90
52543;DHT22;38449;52.696;6.186;2023-08-30T01:01:26;13.40;99.90
52543;DHT22;38449;52.696;6.186;2023-08-30T01:03:54;13.40;99.90
52543;DHT22;38449;52.696;6.186;2023-08-30T01:06:21;13.50;99.90
52543;DHT22;38449;52.696;6.186;2023-08-30T01:08:47;13.50;99.90
52543;DHT22;38449;52.696;6.186;2023-08-30T01:13:55;13.50;99.90
52543;DHT22;38449;52.696;6.186;2023-08-30T01:16:22;13.50;99.90
52543;DHT22;38449;52.696;6.186;2023-08-30T01:18:56;13.50;99.90
52543;DHT22;38449;52.696;6.186;2023-08-30T01:21:55;13.60;99.90
52543;DHT22;38449;52.696;6.186;2023-08-30T01:24:35;13.60;99.90
52543;DHT22;38449;52.696;6.186;2023-08-30T01:27:10;13.70;99.90
52543;DHT22;38449;52.696;6.186;2023-08-30T01:29:38;13.80;99.90
52543;DHT22;38449;52.696;6.186;2023-08-30T01:32:08;13.80;99.90
52543;DHT22;38449;52.696;6.186;2023-08-30T01:34:37;13.80;99.90
52543;DHT22;38449;52.696;6.186;2023-08-30T01:37:08;13.80;99.90
52543;DHT22;38449;52.696;6.186;2023-08-30T01:39:36;13.90;99.90
52543;DHT22;38449;52.696;6.186;2023-08-30T01:42:15;13.90;99.90
52543;DHT22;38449;52.696;6.186;2023-08-30T01:44:42;13.90;99.90
52543;DHT22;38449;52.696;6.186;2023-08-30T01:47:11;14.00;99.90
52543;DHT22;38449;52.696;6.186;2023-08-30T01:49:38;14.00;99.90
52543;DHT22;38449;52.696;6.186;2023-08-30T01:52:06;14.00;99.90
52543;DHT22;38449;52.696;6.186;2023-08-30T01:54:33;14.00;99.90
52543;DHT22;38449;52.696;6.186;2023-08-30T01:57:00;14.10;99.90
52543;DHT22;38449;52.696;6.186;2023-08-30T01:59:26;14.00;99.90
52543;DHT22;38449;52.696;6.186;2023-08-30T02:01:52;14.00;99.90
52543;DHT22;38449;52.696;6.186;2023-08-30T02:04:19;14.00;99.90
52543;DHT22;38449;52.696;6.186;2023-08-30T02:06:57;14.00;99.90
52543;DHT22;38449;52.696;6.186;2023-08-30T02:09:25;14.00;99.90
52543;DHT22;38449;52.696;6.186;2023-08-30T02:11:54;13.90;99.90
52543;DHT22;38449;52.696;6.186;2023-08-30T02:14:22;13.80;99.90
52543;DHT22;38449;52.696;6.186;2023-08-30T02:16:49;13.70;99.90
52543;DHT22;38449;52.696;6.186;2023-08-30T02:19:17;13.60;99.90
52543;DHT22;38449;52.696;6.186;2023-08-30T02:21:47;13.60;99.90
52543;DHT22;38449;52.696;6.186;2023-08-30T02:24:14;13.60;99.90
52543;DHT22;38449;52.696;6.186;2023-08-30T02:26:41;13.50;99.90
52543;DHT22;38449;52.696;6.186;2023-08-30T02:29:08;13.40;99.90
52543;DHT22;38449;52.696;6.186;2023-08-30T02:31:35;13.50;99.90
52543;DHT22;38449;52.696;6.186;2023-08-30T02:34:02;13.40;99.90
52543;DHT22;38449;52.696;6.186;2023-08-30T02:36:29;13.40;99.90
52543;DHT22;38449;52.696;6.186;2023-08-30T02:38:56;13.30;99.90
52543;DHT22;38449;52.696;6.186;2023-08-30T02:41:22;13.30;99.90
52543;DHT22;38449;52.696;6.186;2023-08-30T02:43:48;13.30;99.90
52543;DHT22;38449;52.696;6.186;2023-08-30T02:46:15;13.30;99.90
52543;DHT22;38449;52.696;6.186;2023-08-30T02:48:41;13.30;99.90
52543;DHT22;38449;52.696;6.186;2023-08-30T02:51:07;13.30;99.90
52543;DHT22;38449;52.696;6.186;2023-08-30T02:53:34;13.30;99.90
52543;DHT22;38449;52.696;6.186;2023-08-30T02:56:00;13.40;99.90
52543;DHT22;38449;52.696;6.186;2023-08-30T02:58:27;13.30;99.90
52543;DHT22;38449;52.696;6.186;2023-08-30T03:00:53;13.40;99.90
52543;DHT22;38449;52.696;6.186;2023-08-30T03:03:20;13.30;99.90
52543;DHT22;38449;52.696;6.186;2023-08-30T03:05:46;13.40;99.90
52543;DHT22;38449;52.696;6.186;2023-08-30T03:08:12;13.40;99.90
52543;DHT22;38449;52.696;6.186;2023-08-30T03:10:38;13.50;99.90
52543;DHT22;38449;52.696;6.186;2023-08-30T03:13:05;13.50;99.90
52543;DHT22;38449;52.696;6.186;2023-08-30T03:15:32;13.50;99.90
52543;DHT22;38449;52.696;6.186;2023-08-30T03:18:00;13.50;99.90
52543;DHT22;38449;52.696;6.186;2023-08-30T03:20:27;13.50;99.90
52543;DHT22;38449;52.696;6.186;2023-08-30T03:22:57;13.50;99.90
52543;DHT22;38449;52.696;6.186;2023-08-30T03:25:24;13.60;99.90
52543;DHT22;38449;52.696;6.186;2023-08-30T03:27:50;13.60;99.90
52543;DHT22;38449;52.696;6.186;2023-08-30T03:30:17;13.60;99.90
52543;DHT22;38449;52.696;6.186;2023-08-30T03:32:43;13.60;99.90
52543;DHT22;38449;52.696;6.186;2023-08-30T03:35:09;13.70;99.90
52543;DHT22;38449;52.696;6.186;2023-08-30T03:37:36;13.70;99.90
52543;DHT22;38449;52.696;6.186;2023-08-30T03:40:04;13.70;99.90
52543;DHT22;38449;52.696;6.186;2023-08-30T03:42:30;13.70;99.90
52543;DHT22;38449;52.696;6.186;2023-08-30T03:44:57;13.70;99.90
52543;DHT22;38449;52.696;6.186;2023-08-30T03:47:23;13.70;99.90
52543;DHT22;38449;52.696;6.186;2023-08-30T03:49:50;13.70;99.90
52543;DHT22;38449;52.696;6.186;2023-08-30T03:52:16;13.70;99.90
52543;DHT22;38449;52.696;6.186;2023-08-30T03:54:43;13.80;99.90
52543;DHT22;38449;52.696;6.186;2023-08-30T03:57:15;13.70;99.90
52543;DHT22;38449;52.696;6.186;2023-08-30T03:59:44;13.70;99.90
52543;DHT22;38449;52.696;6.186;2023-08-30T04:02:10;13.80;99.90
52543;DHT22;38449;52.696;6.186;2023-08-30T04:04:37;13.80;99.90
52543;DHT22;38449;52.696;6.186;2023-08-30T04:07:18;13.80;99.90
52543;DHT22;38449;52.696;6.186;2023-08-30T04:09:45;13.90;99.90
52543;DHT22;38449;52.696;6.186;2023-08-30T04:12:11;13.90;99.90
52543;DHT22;38449;52.696;6.186;2023-08-30T04:14:37;13.80;99.90
52543;DHT22;38449;52.696;6.186;2023-08-30T04:17:16;13.90;99.90
52543;DHT22;38449;52.696;6.186;2023-08-30T04:20:14;13.90;99.90
52543;DHT22;38449;52.696;6.186;2023-08-30T04:22:40;13.90;99.90
52543;DHT22;38449;52.696;6.186;2023-08-30T04:25:06;13.90;99.90
52543;DHT22;38449;52.696;6.186;2023-08-30T04:27:35;13.90;99.90
52543;DHT22;38449;52.696;6.186;2023-08-30T04:30:02;14.00;99.90
52543;DHT22;38449;52.696;6.186;2023-08-30T04:32:28;14.00;99.90
52543;DHT22;38449;52.696;6.186;2023-08-30T04:35:27;14.00;99.90
52543;DHT22;38449;52.696;6.186;2023-08-30T04:37:53;14.00;99.90
52543;DHT22;38449;52.696;6.186;2023-08-30T04:40:20;14.00;99.90
52543;DHT22;38449;52.696;6.186;2023-08-30T04:42:46;13.90;99.90
52543;DHT22;38449;52.696;6.186;2023-08-30T04:45:12;13.90;99.90
52543;DHT22;38449;52.696;6.186;2023-08-30T04:47:39;14.00;99.90
52543;DHT22;38449;52.696;6.186;2023-08-30T04:50:05;13.90;99.90
52543;DHT22;38449;52.696;6.186;2023-08-30T04:52:32;14.00;99.90
52543;DHT22;38449;52.696;6.186;2023-08-30T04:54:58;14.00;99.90
52543;DHT22;38449;52.696;6.186;2023-08-30T04:57:24;13.90;99.90
52543;DHT22;38449;52.696;6.186;2023-08-30T04:59:51;13.90;99.90
52543;DHT22;38449;52.696;6.186;2023-08-30T05:02:17;14.00;99.90
52543;DHT22;38449;52.696;6.186;2023-08-30T05:04:43;14.00;99.90
52543;DHT22;38449;52.696;6.186;2023-08-30T05:07:10;14.00;99.90
52543;DHT22;38449;52.696;6.186;2023-08-30T05:09:37;14.00;99.90
52543;DHT22;38449;52.696;6.186;2023-08-30T05:12:03;14.00;99.90
52543;DHT22;38449;52.696;6.186;2023-08-30T05:14:30;14.00;99.90
52543;DHT22;38449;52.696;6.186;2023-08-30T05:16:56;14.00;99.90
52543;DHT22;38449;52.696;6.186;2023-08-30T05:19:22;14.10;99.90
52543;DHT22;38449;52.696;6.186;2023-08-30T05:21:50;14.10;99.90
52543;DHT22;38449;52.696;6.186;2023-08-30T05:24:21;14.10;99.90
52543;DHT22;38449;52.696;6.186;2023-08-30T05:26:48;14.10;99.90
52543;DHT22;38449;52.696;6.186;2023-08-30T05:29:15;14.10;99.90
52543;DHT22;38449;52.696;6.186;2023-08-30T05:31:42;14.20;99.90
52543;DHT22;38449;52.696;6.186;2023-08-30T05:34:09;14.10;99.90
52543;DHT22;38449;52.696;6.186;2023-08-30T05:36:35;14.20;99.90
52543;DHT22;38449;52.696;6.186;2023-08-30T05:39:02;14.20;99.90
52543;DHT22;38449;52.696;6.186;2023-08-30T05:41:30;14.20;99.90
52543;DHT22;38449;52.696;6.186;2023-08-30T05:43:56;14.30;99.90
52543;DHT22;38449;52.696;6.186;2023-08-30T05:46:22;14.30;99.90
52543;DHT22;38449;52.696;6.186;2023-08-30T05:48:49;14.30;99.90
52543;DHT22;38449;52.696;6.186;2023-08-30T05:51:15;14.30;99.90
52543;DHT22;38449;52.696;6.186;2023-08-30T05:53:42;14.40;99.90
52543;DHT22;38449;52.696;6.186;2023-08-30T05:56:08;14.50;99.90
52543;DHT22;38449;52.696;6.186;2023-08-30T05:58:34;14.50;99.90
52543;DHT22;38449;52.696;6.186;2023-08-30T06:01:33;14.50;99.90
52543;DHT22;38449;52.696;6.186;2023-08-30T06:03:59;14.60;99.90
52543;DHT22;38449;52.696;6.186;2023-08-30T06:06:26;14.60;99.90
52543;DHT22;38449;52.696;6.186;2023-08-30T06:08:53;14.50;99.90
52543;DHT22;38449;52.696;6.186;2023-08-30T06:11:21;14.60;99.90
52543;DHT22;38449;52.696;6.186;2023-08-30T06:13:47;14.70;99.90
52543;DHT22;38449;52.696;6.186;2023-08-30T06:16:13;14.80;99.90
52543;DHT22;38449;52.696;6.186;2023-08-30T06:18:41;14.80;99.90
52543;DHT22;38449;52.696;6.186;2023-08-30T06:21:07;14.80;99.90
52543;DHT22;38449;52.696;6.186;2023-08-30T06:23:33;14.80;99.90
52543;DHT22;38449;52.696;6.186;2023-08-30T06:26:00;14.80;99.90
52543;DHT22;38449;52.696;6.186;2023-08-30T06:28:27;14.80;99.90
52543;DHT22;38449;52.696;6.186;2023-08-30T06:30:53;14.90;99.90
52543;DHT22;38449;52.696;6.186;2023-08-30T06:33:19;14.90;99.90
52543;DHT22;38449;52.696;6.186;2023-08-30T06:35:48;14.90;99.90
52543;DHT22;38449;52.696;6.186;2023-08-30T06:38:15;14.90;99.90
52543;DHT22;38449;52.696;6.186;2023-08-30T06:40:45;15.00;99.90
52543;DHT22;38449;52.696;6.186;2023-08-30T06:43:17;14.90;99.90
52543;DHT22;38449;52.696;6.186;2023-08-30T06:45:44;15.00;99.90
52543;DHT22;38449;52.696;6.186;2023-08-30T06:48:10;15.10;99.90
52543;DHT22;38449;52.696;6.186;2023-08-30T06:50:37;15.30;99.90
52543;DHT22;38449;52.696;6.186;2023-08-30T06:53:03;15.50;99.90
52543;DHT22;38449;52.696;6.186;2023-08-30T06:55:29;15.90;99.90
52543;DHT22;38449;52.696;6.186;2023-08-30T06:57:56;16.40;99.90
52543;DHT22;38449;52.696;6.186;2023-08-30T07:00:22;16.70;99.90
52543;DHT22;38449;52.696;6.186;2023-08-30T07:02:48;17.10;99.90
52543;DHT22;38449;52.696;6.186;2023-08-30T07:05:15;17.40;99.90
52543;DHT22;38449;52.696;6.186;2023-08-30T07:07:41;17.50;99.90
52543;DHT22;38449;52.696;6.186;2023-08-30T07:10:08;17.50;99.90
52543;DHT22;38449;52.696;6.186;2023-08-30T07:12:35;17.70;99.90
52543;DHT22;38449;52.696;6.186;2023-08-30T07:15:01;17.80;99.90
52543;DHT22;38449;52.696;6.186;2023-08-30T07:17:29;17.90;99.90
52543;DHT22;38449;52.696;6.186;2023-08-30T07:20:14;18.00;99.90
52543;DHT22;38449;52.696;6.186;2023-08-30T07:22:41;18.10;99.90
52543;DHT22;38449;52.696;6.186;2023-08-30T07:25:09;17.90;99.90
52543;DHT22;38449;52.696;6.186;2023-08-30T07:27:36;17.70;99.90
52543;DHT22;38449;52.696;6.186;2023-08-30T07:30:05;17.60;99.90
52543;DHT22;38449;52.696;6.186;2023-08-30T07:32:31;17.40;99.90
52543;DHT22;38449;52.696;6.186;2023-08-30T07:34:57;17.20;99.90
52543;DHT22;38449;52.696;6.186;2023-08-30T07:37:25;17.00;99.90
52543;DHT22;38449;52.696;6.186;2023-08-30T07:39:52;16.80;99.90
52543;DHT22;38449;52.696;6.186;2023-08-30T07:42:20;16.70;99.90
52543;DHT22;38449;52.696;6.186;2023-08-30T07:44:46;16.50;99.90
52543;DHT22;38449;52.696;6.186;2023-08-30T07:47:12;16.50;99.90
52543;DHT22;38449;52.696;6.186;2023-08-30T07:49:39;16.50;99.90
52543;DHT22;38449;52.696;6.186;2023-08-30T07:52:07;16.50;99.90
52543;DHT22;38449;52.696;6.186;2023-08-30T07:54:37;16.40;99.90
52543;DHT22;38449;52.696;6.186;2023-08-30T07:57:05;16.30;99.90
52543;DHT22;38449;52.696;6.186;2023-08-30T07:59:36;16.40;99.90
52543;DHT22;38449;52.696;6.186;2023-08-30T08:02:14;16.30;99.90
52543;DHT22;38449;52.696;6.186;2023-08-30T08:04:42;16.30;99.90
52543;DHT22;38449;52.696;6.186;2023-08-30T08:07:09;16.30;99.90
52543;DHT22;38449;52.696;6.186;2023-08-30T08:09:35;16.20;99.90
52543;DHT22;38449;52.696;6.186;2023-08-30T08:12:01;16.10;99.90
52543;DHT22;38449;52.696;6.186;2023-08-30T08:14:27;16.20;99.90
52543;DHT22;38449;52.696;6.186;2023-08-30T08:16:53;16.10;99.90
52543;DHT22;38449;52.696;6.186;2023-08-30T08:19:20;16.10;99.90
52543;DHT22;38449;52.696;6.186;2023-08-30T08:21:47;16.00;99.90
52543;DHT22;38449;52.696;6.186;2023-08-30T08:24:14;16.00;99.90
52543;DHT22;38449;52.696;6.186;2023-08-30T08:26:40;15.90;99.90
52543;DHT22;38449;52.696;6.186;2023-08-30T08:29:06;15.90;99.90
52543;DHT22;38449;52.696;6.186;2023-08-30T08:31:32;15.70;99.90
52543;DHT22;38449;52.696;6.186;2023-08-30T08:34:08;15.70;99.90
52543;DHT22;38449;52.696;6.186;2023-08-30T08:36:39;15.70;99.90
52543;DHT22;38449;52.696;6.186;2023-08-30T08:39:15;15.60;99.90
52543;DHT22;38449;52.696;6.186;2023-08-30T08:41:42;15.60;99.90
52543;DHT22;38449;52.696;6.186;2023-08-30T08:44:10;15.50;99.90
52543;DHT22;38449;52.696;6.186;2023-08-30T08:46:37;15.50;99.90
52543;DHT22;38449;52.696;6.186;2023-08-30T08:51:37;15.40;99.90
52543;DHT22;38449;52.696;6.186;2023-08-30T08:54:36;15.40;99.90
52543;DHT22;38449;52.696;6.186;2023-08-30T08:57:06;15.30;99.90
52543;DHT22;38449;52.696;6.186;2023-08-30T08:59:33;15.20;99.90
52543;DHT22;38449;52.696;6.186;2023-08-30T09:02:00;15.10;99.90
52543;DHT22;38449;52.696;6.186;2023-08-30T09:04:31;15.10;99.90
52543;DHT22;38449;52.696;6.186;2023-08-30T09:06:58;15.10;99.90
52543;DHT22;38449;52.696;6.186;2023-08-30T09:09:26;15.10;99.90
52543;DHT22;38449;52.696;6.186;2023-08-30T09:11:52;15.10;99.90
52543;DHT22;38449;52.696;6.186;2023-08-30T09:14:19;15.20;99.90
52543;DHT22;38449;52.696;6.186;2023-08-30T09:17:02;15.20;99.90
52543;DHT22;38449;52.696;6.186;2023-08-30T09:19:29;15.40;99.90
52543;DHT22;38449;52.696;6.186;2023-08-30T09:21:59;15.40;99.90
52543;DHT22;38449;52.696;6.186;2023-08-30T09:24:36;15.50;99.90
52543;DHT22;38449;52.696;6.186;2023-08-30T09:27:03;15.50;99.90
52543;DHT22;38449;52.696;6.186;2023-08-30T09:29:30;15.60;99.90
52543;DHT22;38449;52.696;6.186;2023-08-30T09:31:56;15.70;99.90
52543;DHT22;38449;52.696;6.186;2023-08-30T09:34:23;15.70;99.90
52543;DHT22;38449;52.696;6.186;2023-08-30T09:36:50;15.90;99.90
52543;DHT22;38449;52.696;6.186;2023-08-30T09:39:17;15.80;99.90
52543;DHT22;38449;52.696;6.186;2023-08-30T09:41:45;16.00;99.90
52543;DHT22;38449;52.696;6.186;2023-08-30T09:44:13;16.20;99.90
52543;DHT22;38449;52.696;6.186;2023-08-30T09:47:06;16.20;99.90
52543;DHT22;38449;52.696;6.186;2023-08-30T09:49:43;16.30;99.90
52543;DHT22;38449;52.696;6.186;2023-08-30T09:52:15;16.50;99.90
52543;DHT22;38449;52.696;6.186;2023-08-30T09:54:42;16.30;99.90
52543;DHT22;38449;52.696;6.186;2023-08-30T09:57:10;16.40;99.90
52543;DHT22;38449;52.696;6.186;2023-08-30T09:59:38;16.30;99.90
52543;DHT22;38449;52.696;6.186;2023-08-30T10:02:05;16.20;99.90
52543;DHT22;38449;52.696;6.186;2023-08-30T10:04:35;16.10;99.90
52543;DHT22;38449;52.696;6.186;2023-08-30T10:07:05;16.00;99.90
52543;DHT22;38449;52.696;6.186;2023-08-30T10:09:39;16.00;99.90
52543;DHT22;38449;52.696;6.186;2023-08-30T10:12:06;15.90;99.90
52543;DHT22;38449;52.696;6.186;2023-08-30T10:14:33;15.80;99.90
52543;DHT22;38449;52.696;6.186;2023-08-30T10:17:02;15.80;99.90
52543;DHT22;38449;52.696;6.186;2023-08-30T10:19:29;15.80;99.90
52543;DHT22;38449;52.696;6.186;2023-08-30T10:22:16;15.80;99.90
52543;DHT22;38449;52.696;6.186;2023-08-30T10:24:48;15.80;99.90
52543;DHT22;38449;52.696;6.186;2023-08-30T10:27:17;15.70;99.90
52543;DHT22;38449;52.696;6.186;2023-08-30T10:29:43;15.60;99.90
52543;DHT22;38449;52.696;6.186;2023-08-30T10:32:31;15.60;99.90
52543;DHT22;38449;52.696;6.186;2023-08-30T10:35:01;15.60;99.90
52543;DHT22;38449;52.696;6.186;2023-08-30T10:37:30;15.50;99.90
52543;DHT22;38449;52.696;6.186;2023-08-30T10:40:00;15.50;99.90
52543;DHT22;38449;52.696;6.186;2023-08-30T10:42:29;15.50;99.90
52543;DHT22;38449;52.696;6.186;2023-08-30T10:45:01;15.60;99.90
52543;DHT22;38449;52.696;6.186;2023-08-30T10:47:32;15.50;99.90
52543;DHT22;38449;52.696;6.186;2023-08-30T10:50:00;15.50;99.90
52543;DHT22;38449;52.696;6.186;2023-08-30T10:52:27;15.50;99.90
52543;DHT22;38449;52.696;6.186;2023-08-30T10:55:10;15.50;99.90
52543;DHT22;38449;52.696;6.186;2023-08-30T10:57:42;15.50;99.90
52543;DHT22;38449;52.696;6.186;2023-08-30T11:00:20;15.50;99.90
52543;DHT22;38449;52.696;6.186;2023-08-30T11:02:49;15.50;99.90
52543;DHT22;38449;52.696;6.186;2023-08-30T11:05:17;15.50;99.90
52543;DHT22;38449;52.696;6.186;2023-08-30T11:07:45;15.40;99.90
52543;DHT22;38449;52.696;6.186;2023-08-30T11:10:13;15.30;99.90
52543;DHT22;38449;52.696;6.186;2023-08-30T11:12:40;15.30;99.90
52543;DHT22;38449;52.696;6.186;2023-08-30T11:15:09;15.40;99.90
52543;DHT22;38449;52.696;6.186;2023-08-30T11:17:36;15.40;99.90
52543;DHT22;38449;52.696;6.186;2023-08-30T11:20:07;15.40;99.90
52543;DHT22;38449;52.696;6.186;2023-08-30T11:22:43;15.40;99.90
52543;DHT22;38449;52.696;6.186;2023-08-30T11:25:11;15.40;99.90
52543;DHT22;38449;52.696;6.186;2023-08-30T11:27:38;15.50;99.90
52543;DHT22;38449;52.696;6.186;2023-08-30T11:30:05;15.50;99.90
52543;DHT22;38449;52.696;6.186;2023-08-30T11:32:35;15.30;99.90
52543;DHT22;38449;52.696;6.186;2023-08-30T11:35:02;15.30;99.90
52543;DHT22;38449;52.696;6.186;2023-08-30T11:37:29;15.40;99.90
52543;DHT22;38449;52.696;6.186;2023-08-30T11:39:56;15.40;99.90
52543;DHT22;38449;52.696;6.186;2023-08-30T11:42:23;15.30;99.90
52543;DHT22;38449;52.696;6.186;2023-08-30T11:44:50;15.30;99.90
52543;DHT22;38449;52.696;6.186;2023-08-30T11:47:24;15.40;99.90
52543;DHT22;38449;52.696;6.186;2023-08-30T11:49:56;15.50;99.90
52543;DHT22;38449;52.696;6.186;2023-08-30T11:52:24;15.50;99.90
52543;DHT22;38449;52.696;6.186;2023-08-30T11:54:51;15.60;99.90
52543;DHT22;38449;52.696;6.186;2023-08-30T11:57:19;15.60;99.90
52543;DHT22;38449;52.696;6.186;2023-08-30T11:59:46;15.70;99.90
52543;DHT22;38449;52.696;6.186;2023-08-30T12:02:14;15.60;99.90
52543;DHT22;38449;52.696;6.186;2023-08-30T12:04:46;15.70;99.90
52543;DHT22;38449;52.696;6.186;2023-08-30T12:07:25;15.70;99.90
52543;DHT22;38449;52.696;6.186;2023-08-30T12:09:52;15.70;99.90
52543;DHT22;38449;52.696;6.186;2023-08-30T12:12:19;15.80;99.90
52543;DHT22;38449;52.696;6.186;2023-08-30T12:14:55;15.70;99.90
52543;DHT22;38449;52.696;6.186;2023-08-30T12:17:22;15.80;99.90
52543;DHT22;38449;52.696;6.186;2023-08-30T12:19:58;15.70;99.90
52543;DHT22;38449;52.696;6.186;2023-08-30T12:22:40;15.70;99.90
52543;DHT22;38449;52.696;6.186;2023-08-30T12:25:20;15.70;99.90
52543;DHT22;38449;52.696;6.186;2023-08-30T12:27:56;15.60;99.90
52543;DHT22;38449;52.696;6.186;2023-08-30T12:30:22;15.70;99.90
52543;DHT22;38449;52.696;6.186;2023-08-30T12:32:48;15.70;99.90
52543;DHT22;38449;52.696;6.186;2023-08-30T12:35:15;15.80;99.90
52543;DHT22;38449;52.696;6.186;2023-08-30T12:37:41;15.70;99.90
52543;DHT22;38449;52.696;6.186;2023-08-30T12:40:08;15.80;99.90
52543;DHT22;38449;52.696;6.186;2023-08-30T12:42:34;15.70;99.90
52543;DHT22;38449;52.696;6.186;2023-08-30T12:45:01;15.80;99.90
52543;DHT22;38449;52.696;6.186;2023-08-30T12:47:27;15.80;99.90
52543;DHT22;38449;52.696;6.186;2023-08-30T12:49:53;15.80;99.90
52543;DHT22;38449;52.696;6.186;2023-08-30T12:52:19;16.00;99.90
52543;DHT22;38449;52.696;6.186;2023-08-30T12:54:46;16.00;99.90
52543;DHT22;38449;52.696;6.186;2023-08-30T12:57:14;16.20;99.90
52543;DHT22;38449;52.696;6.186;2023-08-30T12:59:40;16.30;99.90
52543;DHT22;38449;52.696;6.186;2023-08-30T13:02:07;16.30;99.90
52543;DHT22;38449;52.696;6.186;2023-08-30T13:04:34;16.40;99.90
52543;DHT22;38449;52.696;6.186;2023-08-30T13:07:05;16.50;99.90
52543;DHT22;38449;52.696;6.186;2023-08-30T13:09:31;16.50;99.90
52543;DHT22;38449;52.696;6.186;2023-08-30T13:11:57;16.50;99.90
52543;DHT22;38449;52.696;6.186;2023-08-30T13:14:24;16.70;99.90
52543;DHT22;38449;52.696;6.186;2023-08-30T13:16:50;16.60;99.90
52543;DHT22;38449;52.696;6.186;2023-08-30T13:19:17;16.70;99.90
52543;DHT22;38449;52.696;6.186;2023-08-30T13:21:43;16.50;99.90
52543;DHT22;38449;52.696;6.186;2023-08-30T13:24:09;16.50;99.90
52543;DHT22;38449;52.696;6.186;2023-08-30T13:26:36;16.50;99.90
52543;DHT22;38449;52.696;6.186;2023-08-30T13:29:02;16.70;99.90
52543;DHT22;38449;52.696;6.186;2023-08-30T13:31:28;16.80;99.90
52543;DHT22;38449;52.696;6.186;2023-08-30T13:33:55;16.90;99.90
52543;DHT22;38449;52.696;6.186;2023-08-30T13:36:21;16.90;99.90
52543;DHT22;38449;52.696;6.186;2023-08-30T13:38:47;17.00;99.90
52543;DHT22;38449;52.696;6.186;2023-08-30T13:41:13;17.30;99.90
52543;DHT22;38449;52.696;6.186;2023-08-30T13:43:39;17.50;99.90
52543;DHT22;38449;52.696;6.186;2023-08-30T13:46:06;17.50;99.90
52543;DHT22;38449;52.696;6.186;2023-08-30T13:48:32;17.70;99.90
52543;DHT22;38449;52.696;6.186;2023-08-30T13:50:59;17.70;99.90
52543;DHT22;38449;52.696;6.186;2023-08-30T13:53:25;17.70;99.90
52543;DHT22;38449;52.696;6.186;2023-08-30T13:55:52;17.80;99.90
52543;DHT22;38449;52.696;6.186;2023-08-30T13:58:18;17.90;99.90
52543;DHT22;38449;52.696;6.186;2023-08-30T14:00:45;17.80;99.90
52543;DHT22;38449;52.696;6.186;2023-08-30T14:03:11;17.90;99.90
52543;DHT22;38449;52.696;6.186;2023-08-30T14:05:38;17.90;99.90
52543;DHT22;38449;52.696;6.186;2023-08-30T14:08:16;18.00;99.90
52543;DHT22;38449;52.696;6.186;2023-08-30T14:10:43;17.80;99.90
52543;DHT22;38449;52.696;6.186;2023-08-30T14:13:09;17.80;99.90
52543;DHT22;38449;52.696;6.186;2023-08-30T14:15:36;17.90;99.90
52543;DHT22;38449;52.696;6.186;2023-08-30T14:18:02;17.80;99.90
52543;DHT22;38449;52.696;6.186;2023-08-30T14:20:29;17.90;99.90
52543;DHT22;38449;52.696;6.186;2023-08-30T14:22:55;18.10;99.90
52543;DHT22;38449;52.696;6.186;2023-08-30T14:25:21;18.20;99.90
52543;DHT22;38449;52.696;6.186;2023-08-30T14:27:47;18.30;99.90
52543;DHT22;38449;52.696;6.186;2023-08-30T14:30:14;18.40;99.90
52543;DHT22;38449;52.696;6.186;2023-08-30T14:32:41;18.30;99.90
52543;DHT22;38449;52.696;6.186;2023-08-30T14:35:07;18.40;99.90
52543;DHT22;38449;52.696;6.186;2023-08-30T14:37:34;18.60;99.90
52543;DHT22;38449;52.696;6.186;2023-08-30T14:40:04;18.40;99.90
52543;DHT22;38449;52.696;6.186;2023-08-30T14:42:34;18.30;99.90
52543;DHT22;38449;52.696;6.186;2023-08-30T14:45:00;18.00;99.90
52543;DHT22;38449;52.696;6.186;2023-08-30T14:47:29;18.00;99.90
52543;DHT22;38449;52.696;6.186;2023-08-30T14:49:56;17.80;99.90
52543;DHT22;38449;52.696;6.186;2023-08-30T14:52:22;17.70;99.90
52543;DHT22;38449;52.696;6.186;2023-08-30T14:54:48;17.80;99.90
52543;DHT22;38449;52.696;6.186;2023-08-30T14:57:14;17.70;99.90
52543;DHT22;38449;52.696;6.186;2023-08-30T14:59:41;17.70;99.90
52543;DHT22;38449;52.696;6.186;2023-08-30T15:02:07;17.70;99.90
52543;DHT22;38449;52.696;6.186;2023-08-30T15:04:33;17.70;99.90
52543;DHT22;38449;52.696;6.186;2023-08-30T15:07:05;17.80;99.90
52543;DHT22;38449;52.696;6.186;2023-08-30T15:09:31;17.70;99.90
52543;DHT22;38449;52.696;6.186;2023-08-30T15:11:57;17.80;99.90
52543;DHT22;38449;52.696;6.186;2023-08-30T15:14:26;17.70;99.90
52543;DHT22;38449;52.696;6.186;2023-08-30T15:16:53;17.70;99.90
52543;DHT22;38449;52.696;6.186;2023-08-30T15:19:19;17.60;99.90
52543;DHT22;38449;52.696;6.186;2023-08-30T15:21:45;17.50;99.90
52543;DHT22;38449;52.696;6.186;2023-08-30T15:24:11;17.50;99.90
52543;DHT22;38449;52.696;6.186;2023-08-30T15:26:39;17.40;99.90
52543;DHT22;38449;52.696;6.186;2023-08-30T15:29:05;17.40;99.90
52543;DHT22;38449;52.696;6.186;2023-08-30T15:31:32;17.40;99.90
52543;DHT22;38449;52.696;6.186;2023-08-30T15:33:59;17.40;99.90
52543;DHT22;38449;52.696;6.186;2023-08-30T15:36:25;17.30;99.90
52543;DHT22;38449;52.696;6.186;2023-08-30T15:38:52;17.30;99.90
52543;DHT22;38449;52.696;6.186;2023-08-30T15:41:18;17.30;99.90